Terminal Aerodrome Forecast
Issued by NWS Wilmington, OH

Current Version | Previous Version | Text Only | Print | Product List | Glossary On
Versions: 1 2 3 4 5 6 7 8 9 10 11 12 13 14 15 16 17 18
000
FTUS41 KILN 250422 AAB
TAFDAY
TAF AMD
KDAY 250422Z 2504/2524 34015KT 5SM -TSRA BR SCT015 OVC035CB
      TEMPO 2504/2505 2SM +TSRA OVC015CB
     FM250500 21008KT P6SM VCTS SCT040CB BKN100
     FM250700 21008KT P6SM SCT040 BKN250
     FM251500 22012G20KT P6SM FEW040=

USA.gov is the U.S. government's official web portal to all federal, state and local government web resources and services.